Time,TemperatureF,DewpointF,PressureIn,WindDirection,WindDirectionDegrees,WindSpeedMPH,WindSpeedGustMPH,Humidity,HourlyPrecipIn,Conditions,Clouds,dailyrainin,SoftwareType,DateUTC
2013-03-17 00:00:00,54.2,33.9,29.77,NNW,340,4.0,9.0,46,0.00,,,0.00,Wunderground v.1.15,2013-03-17 06:00:00,
2013-03-17 00:10:00,54.2,34.4,29.77,NW,318,4.0,5.0,47,0.00,,,0.00,Wunderground v.1.15,2013-03-17 06:10:00,
2013-03-17 00:20:00,54.4,34.6,29.77,NNW,336,2.0,2.0,47,0.00,,,0.00,Wunderground v.1.15,2013-03-17 06:20:00,
2013-03-17 00:30:00,54.3,34.5,29.76,NNE,14,5.0,5.0,47,0.00,,,0.00,Wunderground v.1.15,2013-03-17 06:30:00,
2013-03-17 00:40:00,54.4,34.6,29.77,North,5,3.0,3.0,47,0.00,,,0.00,Wunderground v.1.15,2013-03-17 06:40:00,
2013-03-17 00:50:00,54.2,34.4,29.76,NNW,331,3.0,3.0,47,0.00,,,0.00,Wunderground v.1.15,2013-03-17 06:50:00,
2013-03-17 01:00:00,53.8,34.6,29.75,NW,321,4.0,4.0,48,0.00,,,0.00,Wunderground v.1.15,2013-03-17 07:00:00,
2013-03-17 01:10:00,53.4,34.7,29.75,NW,320,1.0,15.0,49,0.00,,,0.00,Wunderground v.1.15,2013-03-17 07:10:00,
2013-03-17 01:20:00,53.0,34.8,29.75,NW,320,0.0,15.0,50,0.00,,,0.00,Wunderground v.1.15,2013-03-17 07:20:00,
2013-03-17 01:30:00,52.7,34.6,29.75,NW,320,0.0,15.0,50,0.00,,,0.00,Wunderground v.1.15,2013-03-17 07:30:00,
2013-03-17 01:40:00,52.6,34.5,29.76,NW,319,2.0,15.0,50,0.00,,,0.00,Wunderground v.1.15,2013-03-17 07:40:00,
2013-03-17 01:50:00,52.4,34.8,29.75,NW,317,1.0,1.0,51,0.00,,,0.00,Wunderground v.1.15,2013-03-17 07:50:00,
2013-03-17 02:00:00,52.3,34.7,29.75,NW,317,1.0,1.0,51,0.00,,,0.00,Wunderground v.1.15,2013-03-17 08:00:00,
2013-03-17 02:10:00,52.0,34.9,29.75,NW,317,1.0,1.0,52,0.00,,,0.00,Wunderground v.1.15,2013-03-17 08:10:00,
2013-03-17 02:20:00,51.8,34.7,29.75,NW,319,2.0,15.0,52,0.00,,,0.00,Wunderground v.1.15,2013-03-17 08:20:00,
2013-03-17 02:30:00,51.5,34.9,29.76,NW,319,0.0,15.0,53,0.00,,,0.00,Wunderground v.1.15,2013-03-17 08:30:00,
2013-03-17 02:40:00,51.4,34.8,29.76,NW,319,0.0,15.0,53,0.00,,,0.00,Wunderground v.1.15,2013-03-17 08:40:00,
2013-03-17 02:50:00,51.4,34.8,29.76,NW,318,1.0,1.0,53,0.00,,,0.00,Wunderground v.1.15,2013-03-17 08:50:00,
2013-03-17 03:00:00,51.1,35.0,29.75,NW,318,0.0,15.0,54,0.00,,,0.00,Wunderground v.1.15,2013-03-17 09:00:00,
2013-03-17 03:10:00,50.6,34.6,29.76,NW,319,1.0,1.0,54,0.00,,,0.00,Wunderground v.1.15,2013-03-17 09:10:00,
2013-03-17 03:20:00,50.5,34.9,29.75,NW,319,0.0,15.0,55,0.00,,,0.00,Wunderground v.1.15,2013-03-17 09:20:00,
2013-03-17 03:30:00,49.7,34.6,29.75,NW,319,0.0,15.0,56,0.00,,,0.00,Wunderground v.1.15,2013-03-17 09:30:00,
2013-03-17 03:40:00,49.0,34.0,29.75,NW,319,0.0,15.0,56,0.00,,,0.00,Wunderground v.1.15,2013-03-17 09:40:00,
2013-03-17 03:50:00,48.2,34.1,29.75,NW,319,0.0,15.0,58,0.00,,,0.00,Wunderground v.1.15,2013-03-17 09:50:00,
2013-03-17 04:00:00,47.8,33.7,29.75,NW,319,0.0,15.0,58,0.00,,,0.00,Wunderground v.1.15,2013-03-17 10:00:00,
2013-03-17 04:10:00,47.2,34.0,29.75,NW,319,0.0,15.0,60,0.00,,,0.00,Wunderground v.1.15,2013-03-17 10:10:00,
2013-03-17 04:20:00,47.2,34.4,29.76,NW,319,0.0,15.0,61,0.00,,,0.00,Wunderground v.1.15,2013-03-17 10:20:00,
2013-03-17 04:30:00,48.0,34.3,29.76,NW,319,1.0,1.0,59,0.00,,,0.00,Wunderground v.1.15,2013-03-17 10:30:00,
2013-03-17 04:40:00,47.7,33.6,29.75,NW,319,0.0,15.0,58,0.00,,,0.00,Wunderground v.1.15,2013-03-17 10:40:00,
2013-03-17 04:50:00,46.6,33.4,29.75,NW,319,0.0,15.0,60,0.00,,,0.00,Wunderground v.1.15,2013-03-17 10:50:00,
2013-03-17 05:00:00,45.9,33.6,29.75,NW,319,0.0,15.0,62,0.00,,,0.00,Wunderground v.1.15,2013-03-17 11:00:00,
2013-03-17 05:10:00,45.9,33.6,29.75,NW,319,0.0,15.0,62,0.00,,,0.00,Wunderground v.1.15,2013-03-17 11:10:00,
2013-03-17 05:20:00,45.9,33.6,29.75,NW,319,0.0,15.0,62,0.00,,,0.00,Wunderground v.1.15,2013-03-17 11:20:00,
2013-03-17 05:30:00,45.9,33.6,29.76,NW,319,0.0,15.0,62,0.00,,,0.00,Wunderground v.1.15,2013-03-17 11:30:00,
2013-03-17 05:40:00,46.1,33.4,29.75,NW,319,0.0,15.0,61,0.00,,,0.00,Wunderground v.1.15,2013-03-17 11:40:00,
2013-03-17 05:50:00,46.0,33.3,29.75,NW,319,1.0,1.0,61,0.00,,,0.00,Wunderground v.1.15,2013-03-17 11:50:00,
2013-03-17 06:00:00,46.1,33.4,29.75,NW,319,0.0,15.0,61,0.00,,,0.00,Wunderground v.1.15,2013-03-17 12:00:00,
2013-03-17 06:10:00,46.1,33.4,29.75,NW,319,0.0,15.0,61,0.00,,,0.00,Wunderground v.1.15,2013-03-17 12:10:00,
2013-03-17 06:20:00,46.0,33.7,29.75,NW,319,0.0,15.0,62,0.00,,,0.00,Wunderground v.1.15,2013-03-17 12:20:00,
2013-03-17 06:30:00,45.9,33.6,29.75,NW,319,0.0,15.0,62,0.00,,,0.00,Wunderground v.1.15,2013-03-17 12:30:00,
2013-03-17 06:40:00,46.1,33.8,29.76,NW,319,1.0,15.0,62,0.00,,,0.00,Wunderground v.1.15,2013-03-17 12:40:00,
2013-03-17 06:50:00,46.2,33.5,29.76,NW,319,1.0,15.0,61,0.00,,,0.00,Wunderground v.1.15,2013-03-17 12:50:00,
2013-03-17 07:00:00,46.1,33.8,29.76,NW,319,1.0,15.0,62,0.00,,,0.00,Wunderground v.1.15,2013-03-17 13:00:00,
2013-03-17 07:10:00,46.0,33.7,29.76,NW,319,1.0,15.0,62,0.00,,,0.00,Wunderground v.1.15,2013-03-17 13:10:00,
2013-03-17 07:20:00,46.3,33.6,29.76,NW,315,1.0,15.0,61,0.00,,,0.00,Wunderground v.1.15,2013-03-17 13:20:00,
2013-03-17 07:30:00,46.0,33.7,29.76,NW,316,1.0,15.0,62,0.00,,,0.00,Wunderground v.1.15,2013-03-17 13:30:00,
2013-03-17 07:40:00,46.1,33.8,29.76,NW,316,1.0,1.0,62,0.00,,,0.00,Wunderground v.1.15,2013-03-17 13:40:00,
2013-03-17 07:50:00,46.5,33.8,29.76,NW,316,0.0,15.0,61,0.00,,,0.00,Wunderground v.1.15,2013-03-17 13:50:00,
2013-03-17 08:00:00,47.3,34.5,29.76,NW,306,0.0,15.0,61,0.00,,,0.00,Wunderground v.1.15,2013-03-17 14:00:00,
2013-03-17 08:10:00,47.6,34.0,29.76,West,274,2.0,2.0,59,0.00,,,0.00,Wunderground v.1.15,2013-03-17 14:10:00,
2013-03-17 08:20:00,48.5,34.4,29.76,WSW,257,2.0,2.0,58,0.00,,,0.00,Wunderground v.1.15,2013-03-17 14:20:00,
2013-03-17 08:30:00,49.3,34.7,29.76,WSW,257,1.0,15.0,57,0.00,,,0.00,Wunderground v.1.15,2013-03-17 14:30:00,
2013-03-17 08:40:00,50.2,34.6,29.76,WSW,257,1.0,15.0,55,0.00,,,0.00,Wunderground v.1.15,2013-03-17 14:40:00,
2013-03-17 08:50:00,50.4,34.8,29.76,WSW,248,3.0,15.0,55,0.00,,,0.00,Wunderground v.1.15,2013-03-17 14:50:00,
2013-03-17 09:00:00,50.5,34.5,29.76,WSW,248,3.0,3.0,54,0.00,,,0.00,Wunderground v.1.15,2013-03-17 15:00:00,
2013-03-17 09:10:00,51.3,35.2,29.76,SSW,196,3.0,15.0,54,0.00,,,0.00,Wunderground v.1.15,2013-03-17 15:10:00,
2013-03-17 09:20:00,52.8,35.2,29.76,SSE,161,4.0,15.0,51,0.00,,,0.00,Wunderground v.1.15,2013-03-17 15:20:00,
2013-03-17 09:30:00,52.6,35.0,29.76,SE,142,6.0,15.0,51,0.00,,,0.00,Wunderground v.1.15,2013-03-17 15:30:00,
2013-03-17 09:40:00,52.4,34.8,29.76,SSE,151,5.0,5.0,51,0.00,,,0.00,Wunderground v.1.15,2013-03-17 15:40:00,
2013-03-17 09:50:00,52.4,34.3,29.75,South,172,5.0,15.0,50,0.00,,,0.00,Wunderground v.1.15,2013-03-17 15:50:00,
2013-03-17 10:00:00,52.6,34.5,29.75,SSE,148,7.0,15.0,50,0.00,,,0.00,Wunderground v.1.15,2013-03-17 16:00:00,
2013-03-17 10:10:00,53.1,34.4,29.75,SSE,159,6.0,6.0,49,0.00,,,0.00,Wunderground v.1.15,2013-03-17 16:10:00,
2013-03-17 10:20:00,53.3,34.1,29.75,SSE,159,5.0,5.0,48,0.00,,,0.00,Wunderground v.1.15,2013-03-17 16:20:00,
2013-03-17 10:30:00,53.2,34.0,29.75,South,169,5.0,5.0,48,0.00,,,0.00,Wunderground v.1.15,2013-03-17 16:30:00,
2013-03-17 10:40:00,53.3,34.1,29.75,South,169,5.0,15.0,48,0.00,,,0.00,Wunderground v.1.15,2013-03-17 16:40:00,
2013-03-17 10:50:00,53.9,34.1,29.75,SSE,161,4.0,15.0,47,0.00,,,0.00,Wunderground v.1.15,2013-03-17 16:50:00,
2013-03-17 11:00:00,54.0,34.2,29.74,South,171,5.0,5.0,47,0.00,,,0.00,Wunderground v.1.15,2013-03-17 17:00:00,
2013-03-17 11:10:00,54.4,33.5,29.77,SSE,151,2.0,15.0,45,0.00,,,0.00,Wunderground v.1.15,2013-03-17 17:10:00,
2013-03-17 11:20:00,54.4,33.5,29.77,South,188,3.0,15.0,45,0.00,,,0.00,Wunderground v.1.15,2013-03-17 17:20:00,
2013-03-17 11:30:00,54.2,33.3,29.77,SSW,193,2.0,2.0,45,0.00,,,0.00,Wunderground v.1.15,2013-03-17 17:30:00,
2013-03-17 11:40:00,54.6,33.7,29.78,WSW,251,1.0,15.0,45,0.00,,,0.00,Wunderground v.1.15,2013-03-17 17:40:00,
2013-03-17 11:50:00,53.9,35.7,29.79,NW,311,5.0,5.0,50,0.00,,,0.00,Wunderground v.1.15,2013-03-17 17:50:00,
2013-03-17 12:00:00,52.7,36.0,29.78,NW,313,7.0,15.0,53,0.00,,,0.00,Wunderground v.1.15,2013-03-17 18:00:00,
2013-03-17 12:10:00,54.0,35.8,29.76,NW,319,6.0,15.0,50,0.00,,,0.00,Wunderground v.1.15,2013-03-17 18:10:00,
2013-03-17 12:20:00,55.7,34.7,29.75,NNW,344,5.0,5.0,45,0.00,,,0.00,Wunderground v.1.15,2013-03-17 18:20:00,
2013-03-17 12:30:00,57.5,34.6,29.74,ENE,60,5.0,15.0,42,0.00,,,0.00,Wunderground v.1.15,2013-03-17 18:30:00,
2013-03-17 12:40:00,58.4,34.2,29.74,North,360,7.0,7.0,40,0.00,,,0.00,Wunderground v.1.15,2013-03-17 18:40:00,
2013-03-17 12:50:00,58.2,33.3,29.73,NNE,13,6.0,15.0,39,0.00,,,0.00,Wunderground v.1.15,2013-03-17 18:50:00,
2013-03-17 13:00:00,57.2,33.7,29.72,NNE,13,8.0,15.0,41,0.00,,,0.00,Wunderground v.1.15,2013-03-17 19:00:00,
2013-03-17 13:10:00,57.0,34.1,29.72,North,10,9.0,15.0,42,0.00,,,0.00,Wunderground v.1.15,2013-03-17 19:10:00,
2013-03-17 13:20:00,57.5,34.0,29.71,NNE,21,9.0,9.0,41,0.00,,,0.00,Wunderground v.1.15,2013-03-17 19:20:00,
2013-03-17 13:30:00,59.2,32.9,29.70,North,355,6.0,6.0,37,0.00,,,0.00,Wunderground v.1.15,2013-03-17 19:30:00,
2013-03-17 13:40:00,61.1,31.8,29.68,North,355,2.0,15.0,33,0.00,,,0.00,Wunderground v.1.15,2013-03-17 19:40:00,
2013-03-17 13:50:00,62.0,31.0,29.67,NNE,13,3.0,3.0,31,0.00,,,0.00,Wunderground v.1.15,2013-03-17 19:50:00,
2013-03-17 14:00:00,62.1,30.3,29.66,NNW,331,3.0,15.0,30,0.00,,,0.00,Wunderground v.1.15,2013-03-17 20:00:00,
2013-03-17 14:10:00,63.1,29.4,29.65,West,278,3.0,15.0,28,0.00,,,0.00,Wunderground v.1.15,2013-03-17 20:10:00,
2013-03-17 14:20:00,64.0,29.3,29.64,WNW,290,2.0,15.0,27,0.00,,,0.00,Wunderground v.1.15,2013-03-17 20:20:00,
2013-03-17 14:30:00,64.9,29.2,29.64,WSW,242,4.0,4.0,26,0.00,,,0.00,Wunderground v.1.15,2013-03-17 20:30:00,
2013-03-17 14:40:00,66.6,20.4,29.63,WSW,238,8.0,15.0,17,0.00,,,0.00,Wunderground v.1.15,2013-03-17 20:40:00,
2013-03-17 14:50:00,67.7,13.2,29.63,WSW,253,11.0,11.0,12,0.00,,,0.00,Wunderground v.1.15,2013-03-17 20:50:00,
2013-03-17 15:00:00,67.8,16.8,29.62,SW,236,11.0,11.0,14,0.00,,,0.00,Wunderground v.1.15,2013-03-17 21:00:00,
2013-03-17 15:10:00,68.1,13.5,29.62,NW,312,9.0,16.0,12,0.00,,,0.00,Wunderground v.1.15,2013-03-17 21:10:00,
2013-03-17 15:20:00,68.9,7.7,29.62,NNW,327,11.0,15.0,9,0.00,,,0.00,Wunderground v.1.15,2013-03-17 21:20:00,
2013-03-17 15:30:00,69.6,8.2,29.62,WNW,290,8.0,8.0,9,0.00,,,0.00,Wunderground v.1.15,2013-03-17 21:30:00,
2013-03-17 15:40:00,70.3,6.1,29.62,WSW,248,8.0,15.0,8,0.00,,,0.00,Wunderground v.1.15,2013-03-17 21:40:00,
2013-03-17 15:50:00,69.4,8.0,29.61,WSW,256,10.0,15.0,9,0.00,,,0.00,Wunderground v.1.15,2013-03-17 21:50:00,
2013-03-17 16:00:00,70.0,8.5,29.61,WNW,283,8.0,8.0,9,0.00,,,0.00,Wunderground v.1.15,2013-03-17 22:00:00,
2013-03-17 16:10:00,70.2,8.6,29.61,SW,236,9.0,15.0,9,0.00,,,0.00,Wunderground v.1.15,2013-03-17 22:10:00,
2013-03-17 16:20:00,70.3,8.7,29.61,NW,320,7.0,7.0,9,0.00,,,0.00,Wunderground v.1.15,2013-03-17 22:20:00,
2013-03-17 16:30:00,69.0,7.7,29.61,West,265,10.0,10.0,9,0.00,,,0.00,Wunderground v.1.15,2013-03-17 22:30:00,
2013-03-17 16:40:00,69.4,10.4,29.61,West,259,11.0,15.0,10,0.00,,,0.00,Wunderground v.1.15,2013-03-17 22:40:00,
2013-03-17 16:50:00,69.6,8.2,29.61,NW,309,10.0,10.0,9,0.00,,,0.00,Wunderground v.1.15,2013-03-17 22:50:00,
2013-03-17 17:00:00,69.0,10.1,29.61,SW,235,8.0,15.0,10,0.00,,,0.00,Wunderground v.1.15,2013-03-17 23:00:00,
2013-03-17 17:10:00,68.9,10.0,29.61,West,269,9.0,15.0,10,0.00,,,0.00,Wunderground v.1.15,2013-03-17 23:10:00,
2013-03-17 17:20:00,69.4,5.4,29.61,WSW,252,10.0,10.0,8,0.00,,,0.00,Wunderground v.1.15,2013-03-17 23:20:00,
2013-03-17 17:30:00,69.5,5.5,29.61,West,266,10.0,15.0,8,0.00,,,0.00,Wunderground v.1.15,2013-03-17 23:30:00,
2013-03-17 17:40:00,69.6,5.6,29.61,West,275,10.0,10.0,8,0.00,,,0.00,Wunderground v.1.15,2013-03-17 23:40:00,
2013-03-17 17:50:00,69.4,-0.8,29.61,WSW,247,10.0,20.0,6,0.00,,,0.00,Wunderground v.1.15,2013-03-17 23:50:00,
2013-03-17 18:00:00,69.0,-4.9,29.62,WSW,255,9.0,9.0,5,0.00,,,0.00,Wunderground v.1.15,2013-03-18 00:00:00,
2013-03-17 18:10:00,68.1,-1.7,29.62,WSW,246,9.0,15.0,6,0.00,,,0.00,Wunderground v.1.15,2013-03-18 00:10:00,
2013-03-17 18:20:00,68.3,-1.6,29.62,WSW,248,12.0,12.0,6,0.00,,,0.00,Wunderground v.1.15,2013-03-18 00:20:00,
2013-03-17 18:30:00,68.4,-15.7,29.63,WNW,290,7.0,7.0,3,0.00,,,0.00,Wunderground v.1.15,2013-03-18 00:30:00,
2013-03-17 18:40:00,68.1,-15.9,29.63,WSW,250,7.0,15.0,3,0.00,,,0.00,Wunderground v.1.15,2013-03-18 00:40:00,
2013-03-17 18:50:00,67.5,-16.3,29.63,NW,321,10.0,10.0,3,0.00,,,0.00,Wunderground v.1.15,2013-03-18 00:50:00,
2013-03-17 19:00:00,66.9,-16.7,29.64,SW,228,8.0,15.0,3,0.00,,,0.00,Wunderground v.1.15,2013-03-18 01:00:00,
2013-03-17 19:10:00,66.3,-11.4,29.64,WSW,251,11.0,11.0,4,0.00,,,0.00,Wunderground v.1.15,2013-03-18 01:10:00,
2013-03-17 19:20:00,65.6,-11.9,29.64,West,259,8.0,15.0,4,0.00,,,0.00,Wunderground v.1.15,2013-03-18 01:20:00,
2013-03-17 19:30:00,64.9,-7.8,29.64,West,269,5.0,5.0,5,0.00,,,0.00,Wunderground v.1.15,2013-03-18 01:30:00,
2013-03-17 19:40:00,64.3,-8.2,29.65,WSW,242,4.0,4.0,5,0.00,,,0.00,Wunderground v.1.15,2013-03-18 01:40:00,
2013-03-17 19:50:00,64.0,-8.5,29.65,WSW,251,4.0,15.0,5,0.00,,,0.00,Wunderground v.1.15,2013-03-18 01:50:00,
2013-03-17 20:00:00,63.7,-4.9,29.66,WSW,254,5.0,5.0,6,0.00,,,0.00,Wunderground v.1.15,2013-03-18 02:00:00,
2013-03-17 20:10:00,63.1,-5.4,29.67,WSW,254,4.0,4.0,6,0.00,,,0.00,Wunderground v.1.15,2013-03-18 02:10:00,
2013-03-17 20:20:00,62.5,-5.8,29.67,West,259,4.0,15.0,6,0.00,,,0.00,Wunderground v.1.15,2013-03-18 02:20:00,
2013-03-17 20:30:00,61.9,-3.0,29.68,West,269,2.0,15.0,7,0.00,,,0.00,Wunderground v.1.15,2013-03-18 02:30:00,
2013-03-17 20:40:00,61.2,-3.5,29.68,West,274,2.0,2.0,7,0.00,,,0.00,Wunderground v.1.15,2013-03-18 02:40:00,
2013-03-17 20:50:00,60.6,-1.2,29.68,West,267,2.0,15.0,8,0.00,,,0.00,Wunderground v.1.15,2013-03-18 02:50:00,
2013-03-17 21:00:00,60.1,-1.5,29.69,WSW,256,2.0,15.0,8,0.00,,,0.00,Wunderground v.1.15,2013-03-18 03:00:00,
2013-03-17 21:10:00,59.6,-1.9,29.70,WSW,258,2.0,2.0,8,0.00,,,0.00,Wunderground v.1.15,2013-03-18 03:10:00,
2013-03-17 21:20:00,58.9,0.1,29.71,NW,319,3.0,3.0,9,0.00,,,0.00,Wunderground v.1.15,2013-03-18 03:20:00,
2013-03-17 21:30:00,58.0,-0.6,29.72,NW,317,1.0,1.0,9,0.00,,,0.00,Wunderground v.1.15,2013-03-18 03:30:00,
2013-03-17 21:40:00,57.4,-1.1,29.72,NW,312,2.0,2.0,9,0.00,,,0.00,Wunderground v.1.15,2013-03-18 03:40:00,
2013-03-17 21:50:00,56.8,0.7,29.73,NW,311,1.0,15.0,10,0.00,,,0.00,Wunderground v.1.15,2013-03-18 03:50:00,
2013-03-17 22:00:00,56.2,0.2,29.74,NW,310,1.0,15.0,10,0.00,,,0.00,Wunderground v.1.15,2013-03-18 04:00:00,
2013-03-17 22:10:00,55.9,0.0,29.74,NW,310,1.0,15.0,10,0.00,,,0.00,Wunderground v.1.15,2013-03-18 04:10:00,
2013-03-17 22:20:00,55.7,1.9,29.75,NW,311,1.0,1.0,11,0.00,,,0.00,Wunderground v.1.15,2013-03-18 04:20:00,
2013-03-17 22:30:00,55.4,1.7,29.75,NW,310,1.0,15.0,11,0.00,,,0.00,Wunderground v.1.15,2013-03-18 04:30:00,
2013-03-17 22:40:00,55.0,3.2,29.75,NW,311,0.0,15.0,12,0.00,,,0.00,Wunderground v.1.15,2013-03-18 04:40:00,
2013-03-17 22:50:00,54.3,2.7,29.77,NW,310,0.0,15.0,12,0.00,,,0.00,Wunderground v.1.15,2013-03-18 04:50:00,
2013-03-17 23:00:00,53.5,3.8,29.77,NW,310,0.0,15.0,13,0.00,,,0.00,Wunderground v.1.15,2013-03-18 05:00:00,
2013-03-17 23:10:00,52.8,4.8,29.77,NW,310,0.0,15.0,14,0.00,,,0.00,Wunderground v.1.15,2013-03-18 05:10:00,
2013-03-17 23:20:00,51.5,5.3,29.77,NW,310,0.0,15.0,15,0.00,,,0.00,Wunderground v.1.15,2013-03-18 05:20:00,
2013-03-17 23:30:00,50.6,4.6,29.78,NW,310,0.0,15.0,15,0.00,,,0.00,Wunderground v.1.15,2013-03-18 05:30:00,
2013-03-17 23:40:00,49.6,5.2,29.78,NW,311,0.0,15.0,16,0.00,,,0.00,Wunderground v.1.15,2013-03-18 05:40:00,
2013-03-17 23:50:00,49.0,6.0,29.78,NW,310,0.0,15.0,17,0.00,,,0.00,Wunderground v.1.15,2013-03-18 05:50:00,